sensor_id;sensor_type;location;lat;lon;timestamp;P1;durP1;ratioP1;P2;durP2;ratioP2
38609;SDS011;24367;51.640;9.566;2023-07-09T00:00:51;3.60;;;3.10;;
38609;SDS011;24367;51.640;9.566;2023-07-09T00:03:18;4.22;;;3.53;;
38609;SDS011;24367;51.640;9.566;2023-07-09T00:05:45;4.10;;;3.33;;
38609;SDS011;24367;51.640;9.566;2023-07-09T00:08:16;5.40;;;3.60;;
38609;SDS011;24367;51.640;9.566;2023-07-09T00:10:50;5.55;;;3.17;;
38609;SDS011;24367;51.640;9.566;2023-07-09T00:13:16;4.20;;;3.70;;
38609;SDS011;24367;51.640;9.566;2023-07-09T00:15:43;6.80;;;4.20;;
38609;SDS011;24367;51.640;9.566;2023-07-09T00:18:09;4.03;;;3.17;;
38609;SDS011;24367;51.640;9.566;2023-07-09T00:20:36;5.72;;;3.75;;
38609;SDS011;24367;51.640;9.566;2023-07-09T00:23:02;4.20;;;3.80;;
38609;SDS011;24367;51.640;9.566;2023-07-09T00:25:30;4.93;;;3.75;;
38609;SDS011;24367;51.640;9.566;2023-07-09T00:28:00;4.43;;;3.75;;
38609;SDS011;24367;51.640;9.566;2023-07-09T00:30:27;4.65;;;3.72;;
38609;SDS011;24367;51.640;9.566;2023-07-09T00:32:53;4.80;;;3.83;;
38609;SDS011;24367;51.640;9.566;2023-07-09T00:35:20;5.28;;;4.43;;
38609;SDS011;24367;51.640;9.566;2023-07-09T00:37:48;4.95;;;4.03;;
38609;SDS011;24367;51.640;9.566;2023-07-09T00:40:15;5.45;;;4.05;;
38609;SDS011;24367;51.640;9.566;2023-07-09T00:42:46;5.40;;;3.67;;
38609;SDS011;24367;51.640;9.566;2023-07-09T00:45:19;5.22;;;4.25;;
38609;SDS011;24367;51.640;9.566;2023-07-09T00:50:15;5.00;;;3.90;;
38609;SDS011;24367;51.640;9.566;2023-07-09T00:52:50;4.93;;;4.20;;
38609;SDS011;24367;51.640;9.566;2023-07-09T00:55:20;6.88;;;4.07;;
38609;SDS011;24367;51.640;9.566;2023-07-09T00:57:51;4.88;;;3.72;;
38609;SDS011;24367;51.640;9.566;2023-07-09T01:00:22;5.45;;;3.88;;
38609;SDS011;24367;51.640;9.566;2023-07-09T01:02:52;6.30;;;3.95;;
38609;SDS011;24367;51.640;9.566;2023-07-09T01:05:19;4.15;;;3.75;;
38609;SDS011;24367;51.640;9.566;2023-07-09T01:07:45;5.38;;;4.38;;
38609;SDS011;24367;51.640;9.566;2023-07-09T01:10:13;7.10;;;4.38;;
38609;SDS011;24367;51.640;9.566;2023-07-09T01:12:41;5.60;;;3.80;;
38609;SDS011;24367;51.640;9.566;2023-07-09T01:15:09;5.20;;;3.70;;
38609;SDS011;24367;51.640;9.566;2023-07-09T01:17:36;4.45;;;3.95;;
38609;SDS011;24367;51.640;9.566;2023-07-09T01:20:03;4.63;;;4.00;;
38609;SDS011;24367;51.640;9.566;2023-07-09T01:22:32;4.72;;;4.22;;
38609;SDS011;24367;51.640;9.566;2023-07-09T01:24:59;4.82;;;4.10;;
38609;SDS011;24367;51.640;9.566;2023-07-09T01:27:28;4.93;;;4.35;;
38609;SDS011;24367;51.640;9.566;2023-07-09T01:29:57;5.00;;;3.80;;
38609;SDS011;24367;51.640;9.566;2023-07-09T01:32:24;5.28;;;4.45;;
38609;SDS011;24367;51.640;9.566;2023-07-09T01:34:51;5.18;;;4.45;;
38609;SDS011;24367;51.640;9.566;2023-07-09T01:37:23;5.53;;;4.53;;
38609;SDS011;24367;51.640;9.566;2023-07-09T01:39:52;5.22;;;4.35;;
38609;SDS011;24367;51.640;9.566;2023-07-09T01:42:20;4.60;;;4.07;;
38609;SDS011;24367;51.640;9.566;2023-07-09T01:44:48;8.90;;;4.93;;
38609;SDS011;24367;51.640;9.566;2023-07-09T01:47:15;5.00;;;4.45;;
38609;SDS011;24367;51.640;9.566;2023-07-09T01:49:42;4.95;;;4.05;;
38609;SDS011;24367;51.640;9.566;2023-07-09T01:52:11;7.53;;;4.22;;
38609;SDS011;24367;51.640;9.566;2023-07-09T01:54:39;5.00;;;4.50;;
38609;SDS011;24367;51.640;9.566;2023-07-09T01:57:15;5.72;;;4.20;;
38609;SDS011;24367;51.640;9.566;2023-07-09T01:59:44;6.45;;;4.53;;
38609;SDS011;24367;51.640;9.566;2023-07-09T02:02:11;5.95;;;4.30;;
38609;SDS011;24367;51.640;9.566;2023-07-09T02:04:44;5.95;;;4.38;;
38609;SDS011;24367;51.640;9.566;2023-07-09T02:07:11;5.95;;;4.47;;
38609;SDS011;24367;51.640;9.566;2023-07-09T02:09:38;5.18;;;4.65;;
38609;SDS011;24367;51.640;9.566;2023-07-09T02:12:05;4.45;;;4.05;;
38609;SDS011;24367;51.640;9.566;2023-07-09T02:14:33;6.00;;;4.07;;
38609;SDS011;24367;51.640;9.566;2023-07-09T02:16:59;4.88;;;4.25;;
38609;SDS011;24367;51.640;9.566;2023-07-09T02:19:27;5.65;;;4.35;;
38609;SDS011;24367;51.640;9.566;2023-07-09T02:21:54;5.32;;;3.97;;
38609;SDS011;24367;51.640;9.566;2023-07-09T02:24:20;6.78;;;4.80;;
38609;SDS011;24367;51.640;9.566;2023-07-09T02:26:49;5.68;;;4.75;;
38609;SDS011;24367;51.640;9.566;2023-07-09T02:29:15;5.20;;;4.55;;
38609;SDS011;24367;51.640;9.566;2023-07-09T02:31:44;5.13;;;4.35;;
38609;SDS011;24367;51.640;9.566;2023-07-09T02:34:10;6.45;;;4.55;;
38609;SDS011;24367;51.640;9.566;2023-07-09T02:36:37;6.22;;;4.65;;
38609;SDS011;24367;51.640;9.566;2023-07-09T02:39:08;6.93;;;4.60;;
38609;SDS011;24367;51.640;9.566;2023-07-09T02:41:34;5.43;;;4.13;;
38609;SDS011;24367;51.640;9.566;2023-07-09T02:44:00;6.10;;;4.40;;
38609;SDS011;24367;51.640;9.566;2023-07-09T02:46:27;5.25;;;4.68;;
38609;SDS011;24367;51.640;9.566;2023-07-09T02:48:55;5.55;;;4.25;;
38609;SDS011;24367;51.640;9.566;2023-07-09T02:51:21;7.20;;;4.93;;
38609;SDS011;24367;51.640;9.566;2023-07-09T02:53:48;5.20;;;4.53;;
38609;SDS011;24367;51.640;9.566;2023-07-09T02:56:14;5.05;;;4.50;;
38609;SDS011;24367;51.640;9.566;2023-07-09T02:58:41;7.47;;;4.68;;
38609;SDS011;24367;51.640;9.566;2023-07-09T03:01:07;5.38;;;4.82;;
38609;SDS011;24367;51.640;9.566;2023-07-09T03:03:34;6.80;;;4.72;;
38609;SDS011;24367;51.640;9.566;2023-07-09T03:06:01;5.50;;;4.72;;
38609;SDS011;24367;51.640;9.566;2023-07-09T03:08:28;5.35;;;4.68;;
38609;SDS011;24367;51.640;9.566;2023-07-09T03:10:54;8.32;;;4.70;;
38609;SDS011;24367;51.640;9.566;2023-07-09T03:13:21;5.07;;;4.57;;
38609;SDS011;24367;51.640;9.566;2023-07-09T03:15:53;5.20;;;4.68;;
38609;SDS011;24367;51.640;9.566;2023-07-09T03:18:21;6.55;;;4.78;;
38609;SDS011;24367;51.640;9.566;2023-07-09T03:20:47;5.13;;;4.55;;
38609;SDS011;24367;51.640;9.566;2023-07-09T03:23:15;6.60;;;4.38;;
38609;SDS011;24367;51.640;9.566;2023-07-09T03:25:42;5.55;;;4.85;;
38609;SDS011;24367;51.640;9.566;2023-07-09T03:28:08;6.57;;;5.30;;
38609;SDS011;24367;51.640;9.566;2023-07-09T03:30:35;5.97;;;4.90;;
38609;SDS011;24367;51.640;9.566;2023-07-09T03:33:06;6.47;;;4.78;;
38609;SDS011;24367;51.640;9.566;2023-07-09T03:35:32;5.57;;;4.80;;
38609;SDS011;24367;51.640;9.566;2023-07-09T03:37:59;6.25;;;4.20;;
38609;SDS011;24367;51.640;9.566;2023-07-09T03:40:27;5.88;;;4.25;;
38609;SDS011;24367;51.640;9.566;2023-07-09T03:42:54;7.65;;;4.28;;
38609;SDS011;24367;51.640;9.566;2023-07-09T03:45:20;5.60;;;5.00;;
38609;SDS011;24367;51.640;9.566;2023-07-09T03:47:47;5.70;;;4.97;;
38609;SDS011;24367;51.640;9.566;2023-07-09T03:50:13;5.07;;;4.15;;
38609;SDS011;24367;51.640;9.566;2023-07-09T03:52:40;5.32;;;4.82;;
38609;SDS011;24367;51.640;9.566;2023-07-09T03:55:07;7.50;;;4.38;;
38609;SDS011;24367;51.640;9.566;2023-07-09T03:57:35;6.15;;;4.75;;
38609;SDS011;24367;51.640;9.566;2023-07-09T04:00:01;6.55;;;4.82;;
38609;SDS011;24367;51.640;9.566;2023-07-09T04:02:40;7.00;;;4.90;;
38609;SDS011;24367;51.640;9.566;2023-07-09T04:05:09;5.78;;;4.70;;
38609;SDS011;24367;51.640;9.566;2023-07-09T04:07:36;8.85;;;4.63;;
38609;SDS011;24367;51.640;9.566;2023-07-09T04:10:03;6.25;;;4.47;;
38609;SDS011;24367;51.640;9.566;2023-07-09T04:12:30;4.90;;;4.22;;
38609;SDS011;24367;51.640;9.566;2023-07-09T04:14:58;6.07;;;4.82;;
38609;SDS011;24367;51.640;9.566;2023-07-09T04:17:24;6.25;;;4.68;;
38609;SDS011;24367;51.640;9.566;2023-07-09T04:19:51;5.60;;;4.22;;
38609;SDS011;24367;51.640;9.566;2023-07-09T04:22:17;5.13;;;4.60;;
38609;SDS011;24367;51.640;9.566;2023-07-09T04:24:43;8.15;;;5.00;;
38609;SDS011;24367;51.640;9.566;2023-07-09T04:27:10;6.22;;;5.20;;
38609;SDS011;24367;51.640;9.566;2023-07-09T04:29:39;5.35;;;4.25;;
38609;SDS011;24367;51.640;9.566;2023-07-09T04:32:07;5.47;;;4.13;;
38609;SDS011;24367;51.640;9.566;2023-07-09T04:34:38;7.60;;;4.72;;
38609;SDS011;24367;51.640;9.566;2023-07-09T04:37:05;6.57;;;4.90;;
38609;SDS011;24367;51.640;9.566;2023-07-09T04:39:32;5.88;;;4.97;;
38609;SDS011;24367;51.640;9.566;2023-07-09T04:41:58;5.75;;;4.53;;
38609;SDS011;24367;51.640;9.566;2023-07-09T04:44:25;5.20;;;4.40;;
38609;SDS011;24367;51.640;9.566;2023-07-09T04:46:52;6.50;;;5.25;;
38609;SDS011;24367;51.640;9.566;2023-07-09T04:49:19;4.85;;;4.20;;
38609;SDS011;24367;51.640;9.566;2023-07-09T04:51:46;5.60;;;4.40;;
38609;SDS011;24367;51.640;9.566;2023-07-09T04:54:12;5.53;;;4.57;;
38609;SDS011;24367;51.640;9.566;2023-07-09T04:56:40;5.68;;;4.70;;
38609;SDS011;24367;51.640;9.566;2023-07-09T04:59:09;5.57;;;4.47;;
38609;SDS011;24367;51.640;9.566;2023-07-09T05:01:36;5.00;;;4.50;;
38609;SDS011;24367;51.640;9.566;2023-07-09T05:04:03;4.68;;;4.00;;
38609;SDS011;24367;51.640;9.566;2023-07-09T05:06:31;5.05;;;4.10;;
38609;SDS011;24367;51.640;9.566;2023-07-09T05:08:57;4.75;;;4.30;;
38609;SDS011;24367;51.640;9.566;2023-07-09T05:11:23;5.03;;;4.53;;
38609;SDS011;24367;51.640;9.566;2023-07-09T05:13:50;4.43;;;3.97;;
38609;SDS011;24367;51.640;9.566;2023-07-09T05:16:16;6.05;;;4.47;;
38609;SDS011;24367;51.640;9.566;2023-07-09T05:18:44;5.43;;;4.40;;
38609;SDS011;24367;51.640;9.566;2023-07-09T05:21:10;4.60;;;4.07;;
38609;SDS011;24367;51.640;9.566;2023-07-09T05:23:38;6.90;;;4.55;;
38609;SDS011;24367;51.640;9.566;2023-07-09T05:26:05;5.75;;;4.40;;
38609;SDS011;24367;51.640;9.566;2023-07-09T05:28:31;5.13;;;4.22;;
38609;SDS011;24367;51.640;9.566;2023-07-09T05:30:57;6.72;;;4.28;;
38609;SDS011;24367;51.640;9.566;2023-07-09T05:33:24;5.47;;;4.63;;
38609;SDS011;24367;51.640;9.566;2023-07-09T05:35:50;5.88;;;4.38;;
38609;SDS011;24367;51.640;9.566;2023-07-09T05:38:17;4.50;;;4.03;;
38609;SDS011;24367;51.640;9.566;2023-07-09T05:40:44;4.65;;;3.88;;
38609;SDS011;24367;51.640;9.566;2023-07-09T05:43:11;5.28;;;4.13;;
38609;SDS011;24367;51.640;9.566;2023-07-09T05:45:38;5.55;;;4.18;;
38609;SDS011;24367;51.640;9.566;2023-07-09T05:48:04;5.95;;;4.20;;
38609;SDS011;24367;51.640;9.566;2023-07-09T05:50:32;5.85;;;4.45;;
38609;SDS011;24367;51.640;9.566;2023-07-09T05:53:00;4.80;;;4.15;;
38609;SDS011;24367;51.640;9.566;2023-07-09T05:55:26;4.40;;;4.00;;
38609;SDS011;24367;51.640;9.566;2023-07-09T05:57:54;5.13;;;4.63;;
38609;SDS011;24367;51.640;9.566;2023-07-09T06:00:20;5.22;;;4.45;;
38609;SDS011;24367;51.640;9.566;2023-07-09T06:02:47;5.30;;;4.32;;
38609;SDS011;24367;51.640;9.566;2023-07-09T06:05:13;5.22;;;4.25;;
38609;SDS011;24367;51.640;9.566;2023-07-09T06:07:40;5.20;;;4.18;;
38609;SDS011;24367;51.640;9.566;2023-07-09T06:10:07;5.30;;;4.13;;
38609;SDS011;24367;51.640;9.566;2023-07-09T06:12:33;5.25;;;4.38;;
38609;SDS011;24367;51.640;9.566;2023-07-09T06:15:01;4.60;;;3.95;;
38609;SDS011;24367;51.640;9.566;2023-07-09T06:17:28;4.82;;;4.13;;
38609;SDS011;24367;51.640;9.566;2023-07-09T06:19:54;5.78;;;4.05;;
38609;SDS011;24367;51.640;9.566;2023-07-09T06:22:21;4.60;;;3.72;;
38609;SDS011;24367;51.640;9.566;2023-07-09T06:24:47;4.88;;;4.00;;
38609;SDS011;24367;51.640;9.566;2023-07-09T06:27:13;4.85;;;4.28;;
38609;SDS011;24367;51.640;9.566;2023-07-09T06:29:40;4.68;;;4.18;;
38609;SDS011;24367;51.640;9.566;2023-07-09T06:32:08;5.22;;;4.22;;
38609;SDS011;24367;51.640;9.566;2023-07-09T06:34:34;4.35;;;3.70;;
38609;SDS011;24367;51.640;9.566;2023-07-09T06:37:01;4.65;;;4.15;;
38609;SDS011;24367;51.640;9.566;2023-07-09T06:39:27;4.63;;;3.58;;
38609;SDS011;24367;51.640;9.566;2023-07-09T06:41:54;4.28;;;3.83;;
38609;SDS011;24367;51.640;9.566;2023-07-09T06:44:45;4.40;;;3.78;;
38609;SDS011;24367;51.640;9.566;2023-07-09T06:47:13;4.30;;;3.90;;
38609;SDS011;24367;51.640;9.566;2023-07-09T06:49:40;4.13;;;3.72;;
38609;SDS011;24367;51.640;9.566;2023-07-09T06:52:06;4.50;;;3.92;;
38609;SDS011;24367;51.640;9.566;2023-07-09T06:54:33;4.65;;;4.00;;
38609;SDS011;24367;51.640;9.566;2023-07-09T06:56:59;5.05;;;3.97;;
38609;SDS011;24367;51.640;9.566;2023-07-09T06:59:25;5.30;;;3.97;;
38609;SDS011;24367;51.640;9.566;2023-07-09T07:01:52;4.72;;;3.85;;
38609;SDS011;24367;51.640;9.566;2023-07-09T07:04:20;4.57;;;4.05;;
38609;SDS011;24367;51.640;9.566;2023-07-09T07:06:46;5.90;;;4.50;;
38609;SDS011;24367;51.640;9.566;2023-07-09T07:09:12;4.50;;;3.97;;
38609;SDS011;24367;51.640;9.566;2023-07-09T07:11:39;4.60;;;3.85;;
38609;SDS011;24367;51.640;9.566;2023-07-09T07:14:05;5.65;;;3.83;;
38609;SDS011;24367;51.640;9.566;2023-07-09T07:16:31;4.90;;;4.05;;
38609;SDS011;24367;51.640;9.566;2023-07-09T07:18:58;3.80;;;3.40;;
38609;SDS011;24367;51.640;9.566;2023-07-09T07:21:25;5.10;;;4.22;;
38609;SDS011;24367;51.640;9.566;2023-07-09T07:23:52;8.45;;;3.85;;
38609;SDS011;24367;51.640;9.566;2023-07-09T07:26:18;6.70;;;3.47;;
38609;SDS011;24367;51.640;9.566;2023-07-09T07:28:45;5.55;;;3.70;;
38609;SDS011;24367;51.640;9.566;2023-07-09T07:31:12;6.07;;;3.78;;
38609;SDS011;24367;51.640;9.566;2023-07-09T07:33:39;6.60;;;3.65;;
38609;SDS011;24367;51.640;9.566;2023-07-09T07:36:06;5.38;;;3.35;;
38609;SDS011;24367;51.640;9.566;2023-07-09T07:38:34;4.15;;;3.50;;
38609;SDS011;24367;51.640;9.566;2023-07-09T07:41:01;10.20;;;3.83;;
38609;SDS011;24367;51.640;9.566;2023-07-09T07:43:28;4.53;;;3.70;;
38609;SDS011;24367;51.640;9.566;2023-07-09T07:45:54;4.72;;;3.80;;
38609;SDS011;24367;51.640;9.566;2023-07-09T07:48:21;4.28;;;3.85;;
38609;SDS011;24367;51.640;9.566;2023-07-09T07:50:47;4.72;;;3.35;;
38609;SDS011;24367;51.640;9.566;2023-07-09T07:53:14;4.80;;;3.80;;
38609;SDS011;24367;51.640;9.566;2023-07-09T07:55:42;5.55;;;3.38;;
38609;SDS011;24367;51.640;9.566;2023-07-09T07:58:11;4.88;;;4.10;;
38609;SDS011;24367;51.640;9.566;2023-07-09T08:00:39;6.75;;;3.95;;
38609;SDS011;24367;51.640;9.566;2023-07-09T08:03:06;8.68;;;3.55;;
38609;SDS011;24367;51.640;9.566;2023-07-09T08:05:32;8.55;;;3.60;;
38609;SDS011;24367;51.640;9.566;2023-07-09T08:07:58;7.03;;;3.65;;
38609;SDS011;24367;51.640;9.566;2023-07-09T08:10:25;5.80;;;3.28;;
38609;SDS011;24367;51.640;9.566;2023-07-09T08:12:53;6.85;;;3.25;;
38609;SDS011;24367;51.640;9.566;2023-07-09T08:15:21;4.53;;;3.20;;
38609;SDS011;24367;51.640;9.566;2023-07-09T08:17:48;4.18;;;2.97;;
38609;SDS011;24367;51.640;9.566;2023-07-09T08:20:14;7.30;;;3.30;;
38609;SDS011;24367;51.640;9.566;2023-07-09T08:22:41;4.85;;;2.97;;
38609;SDS011;24367;51.640;9.566;2023-07-09T08:25:07;7.05;;;4.22;;
38609;SDS011;24367;51.640;9.566;2023-07-09T08:27:34;4.53;;;3.00;;
38609;SDS011;24367;51.640;9.566;2023-07-09T08:30:02;6.55;;;3.78;;
38609;SDS011;24367;51.640;9.566;2023-07-09T08:32:28;6.47;;;3.55;;
38609;SDS011;24367;51.640;9.566;2023-07-09T08:34:55;6.68;;;3.10;;
38609;SDS011;24367;51.640;9.566;2023-07-09T08:37:21;7.03;;;3.30;;
38609;SDS011;24367;51.640;9.566;2023-07-09T08:39:48;7.35;;;3.55;;
38609;SDS011;24367;51.640;9.566;2023-07-09T08:42:17;11.70;;;3.67;;
38609;SDS011;24367;51.640;9.566;2023-07-09T08:44:53;8.87;;;3.30;;
38609;SDS011;24367;51.640;9.566;2023-07-09T08:47:31;6.47;;;3.95;;
38609;SDS011;24367;51.640;9.566;2023-07-09T08:50:01;12.00;;;3.95;;
38609;SDS011;24367;51.640;9.566;2023-07-09T08:52:30;7.45;;;3.40;;
38609;SDS011;24367;51.640;9.566;2023-07-09T08:54:59;8.38;;;3.67;;
38609;SDS011;24367;51.640;9.566;2023-07-09T08:57:32;8.32;;;3.83;;
38609;SDS011;24367;51.640;9.566;2023-07-09T09:00:02;10.10;;;4.03;;
38609;SDS011;24367;51.640;9.566;2023-07-09T09:02:35;10.93;;;3.92;;
38609;SDS011;24367;51.640;9.566;2023-07-09T09:05:04;10.45;;;3.95;;
38609;SDS011;24367;51.640;9.566;2023-07-09T09:07:35;5.65;;;3.38;;
38609;SDS011;24367;51.640;9.566;2023-07-09T09:10:07;9.23;;;3.80;;
38609;SDS011;24367;51.640;9.566;2023-07-09T09:12:38;8.07;;;3.60;;
38609;SDS011;24367;51.640;9.566;2023-07-09T09:15:20;8.07;;;3.38;;
38609;SDS011;24367;51.640;9.566;2023-07-09T09:17:48;5.97;;;3.40;;
38609;SDS011;24367;51.640;9.566;2023-07-09T09:20:19;4.75;;;2.88;;
38609;SDS011;24367;51.640;9.566;2023-07-09T09:22:48;6.43;;;3.33;;
38609;SDS011;24367;51.640;9.566;2023-07-09T09:25:20;8.55;;;3.70;;
38609;SDS011;24367;51.640;9.566;2023-07-09T09:27:50;5.70;;;3.20;;
38609;SDS011;24367;51.640;9.566;2023-07-09T09:30:17;9.98;;;3.65;;
38609;SDS011;24367;51.640;9.566;2023-07-09T09:32:47;10.82;;;3.97;;
38609;SDS011;24367;51.640;9.566;2023-07-09T09:35:15;7.43;;;3.20;;
38609;SDS011;24367;51.640;9.566;2023-07-09T09:37:44;11.77;;;3.47;;
38609;SDS011;24367;51.640;9.566;2023-07-09T09:40:17;5.38;;;3.35;;
38609;SDS011;24367;51.640;9.566;2023-07-09T09:42:43;5.68;;;3.78;;
38609;SDS011;24367;51.640;9.566;2023-07-09T09:45:10;23.73;;;4.30;;
38609;SDS011;24367;51.640;9.566;2023-07-09T09:47:39;8.38;;;3.83;;
38609;SDS011;24367;51.640;9.566;2023-07-09T09:50:08;7.78;;;3.70;;
38609;SDS011;24367;51.640;9.566;2023-07-09T09:52:36;5.55;;;3.42;;
38609;SDS011;24367;51.640;9.566;2023-07-09T09:55:08;8.27;;;3.55;;
38609;SDS011;24367;51.640;9.566;2023-07-09T09:57:36;8.10;;;3.70;;
38609;SDS011;24367;51.640;9.566;2023-07-09T10:00:03;5.07;;;3.33;;
38609;SDS011;24367;51.640;9.566;2023-07-09T10:02:37;12.90;;;3.88;;
38609;SDS011;24367;51.640;9.566;2023-07-09T10:05:10;4.28;;;3.28;;
38609;SDS011;24367;51.640;9.566;2023-07-09T10:07:39;6.75;;;3.38;;
38609;SDS011;24367;51.640;9.566;2023-07-09T10:10:10;7.28;;;3.78;;
38609;SDS011;24367;51.640;9.566;2023-07-09T10:12:41;8.30;;;3.10;;
38609;SDS011;24367;51.640;9.566;2023-07-09T10:15:13;8.68;;;4.13;;
38609;SDS011;24367;51.640;9.566;2023-07-09T10:17:49;8.43;;;3.83;;
38609;SDS011;24367;51.640;9.566;2023-07-09T10:22:50;5.78;;;2.90;;
38609;SDS011;24367;51.640;9.566;2023-07-09T10:25:26;5.30;;;3.53;;
38609;SDS011;24367;51.640;9.566;2023-07-09T10:28:02;5.47;;;3.40;;
38609;SDS011;24367;51.640;9.566;2023-07-09T10:30:43;6.00;;;3.40;;
38609;SDS011;24367;51.640;9.566;2023-07-09T10:33:17;5.00;;;3.38;;
38609;SDS011;24367;51.640;9.566;2023-07-09T10:35:51;5.70;;;3.38;;
38609;SDS011;24367;51.640;9.566;2023-07-09T10:38:24;9.00;;;3.60;;
38609;SDS011;24367;51.640;9.566;2023-07-09T10:40:58;5.60;;;3.30;;
38609;SDS011;24367;51.640;9.566;2023-07-09T10:43:28;4.60;;;3.00;;
38609;SDS011;24367;51.640;9.566;2023-07-09T10:45:59;8.98;;;3.45;;
38609;SDS011;24367;51.640;9.566;2023-07-09T10:48:31;4.93;;;3.35;;
38609;SDS011;24367;51.640;9.566;2023-07-09T10:51:01;5.43;;;3.28;;
38609;SDS011;24367;51.640;9.566;2023-07-09T10:53:30;4.75;;;2.80;;
38609;SDS011;24367;51.640;9.566;2023-07-09T10:55:59;9.38;;;3.53;;
38609;SDS011;24367;51.640;9.566;2023-07-09T10:58:28;3.67;;;3.13;;
38609;SDS011;24367;51.640;9.566;2023-07-09T11:00:59;4.22;;;2.90;;
38609;SDS011;24367;51.640;9.566;2023-07-09T11:03:29;7.15;;;3.25;;
38609;SDS011;24367;51.640;9.566;2023-07-09T11:06:01;4.75;;;3.70;;
38609;SDS011;24367;51.640;9.566;2023-07-09T11:08:30;7.60;;;3.50;;
38609;SDS011;24367;51.640;9.566;2023-07-09T11:11:01;6.38;;;2.90;;
38609;SDS011;24367;51.640;9.566;2023-07-09T11:13:31;6.63;;;3.55;;
38609;SDS011;24367;51.640;9.566;2023-07-09T11:16:01;8.07;;;3.25;;
38609;SDS011;24367;51.640;9.566;2023-07-09T11:18:30;3.88;;;2.78;;
38609;SDS011;24367;51.640;9.566;2023-07-09T11:20:59;25.67;;;4.13;;
38609;SDS011;24367;51.640;9.566;2023-07-09T11:23:37;6.90;;;3.30;;
38609;SDS011;24367;51.640;9.566;2023-07-09T11:26:10;6.05;;;2.78;;
38609;SDS011;24367;51.640;9.566;2023-07-09T11:28:38;6.43;;;2.77;;
38609;SDS011;24367;51.640;9.566;2023-07-09T11:31:07;10.75;;;3.03;;
38609;SDS011;24367;51.640;9.566;2023-07-09T11:33:43;5.13;;;2.97;;
38609;SDS011;24367;51.640;9.566;2023-07-09T11:36:13;4.63;;;3.22;;
38609;SDS011;24367;51.640;9.566;2023-07-09T11:38:51;5.55;;;3.10;;
38609;SDS011;24367;51.640;9.566;2023-07-09T11:41:40;5.03;;;2.80;;
38609;SDS011;24367;51.640;9.566;2023-07-09T11:44:12;6.28;;;2.75;;
38609;SDS011;24367;51.640;9.566;2023-07-09T11:46:52;8.20;;;3.33;;
38609;SDS011;24367;51.640;9.566;2023-07-09T11:49:24;6.18;;;3.00;;
38609;SDS011;24367;51.640;9.566;2023-07-09T11:51:54;6.25;;;3.28;;
38609;SDS011;24367;51.640;9.566;2023-07-09T11:54:25;4.78;;;3.28;;
38609;SDS011;24367;51.640;9.566;2023-07-09T11:56:54;4.63;;;2.92;;
38609;SDS011;24367;51.640;9.566;2023-07-09T11:59:22;6.22;;;3.17;;
38609;SDS011;24367;51.640;9.566;2023-07-09T12:01:48;5.78;;;3.00;;
38609;SDS011;24367;51.640;9.566;2023-07-09T12:04:18;5.10;;;3.30;;
38609;SDS011;24367;51.640;9.566;2023-07-09T12:06:47;3.60;;;2.80;;
38609;SDS011;24367;51.640;9.566;2023-07-09T12:09:15;4.30;;;2.70;;
38609;SDS011;24367;51.640;9.566;2023-07-09T12:11:43;4.82;;;3.13;;
38609;SDS011;24367;51.640;9.566;2023-07-09T12:14:11;7.85;;;2.85;;
38609;SDS011;24367;51.640;9.566;2023-07-09T12:16:40;4.15;;;3.35;;
38609;SDS011;24367;51.640;9.566;2023-07-09T12:19:07;5.20;;;2.65;;
38609;SDS011;24367;51.640;9.566;2023-07-09T12:21:36;4.38;;;3.28;;
38609;SDS011;24367;51.640;9.566;2023-07-09T12:24:11;8.57;;;2.70;;
38609;SDS011;24367;51.640;9.566;2023-07-09T12:26:47;4.25;;;2.63;;
38609;SDS011;24367;51.640;9.566;2023-07-09T12:29:14;4.97;;;2.78;;
38609;SDS011;24367;51.640;9.566;2023-07-09T12:31:40;4.57;;;2.85;;
38609;SDS011;24367;51.640;9.566;2023-07-09T12:34:10;4.80;;;2.80;;
38609;SDS011;24367;51.640;9.566;2023-07-09T12:36:38;4.20;;;2.97;;
38609;SDS011;24367;51.640;9.566;2023-07-09T12:39:05;5.63;;;3.10;;
38609;SDS011;24367;51.640;9.566;2023-07-09T12:41:35;4.13;;;2.83;;
38609;SDS011;24367;51.640;9.566;2023-07-09T12:44:02;3.50;;;2.80;;
38609;SDS011;24367;51.640;9.566;2023-07-09T12:46:28;4.20;;;3.05;;
38609;SDS011;24367;51.640;9.566;2023-07-09T12:48:55;3.67;;;2.80;;
38609;SDS011;24367;51.640;9.566;2023-07-09T12:51:23;3.13;;;2.40;;
38609;SDS011;24367;51.640;9.566;2023-07-09T12:53:59;3.45;;;2.72;;
38609;SDS011;24367;51.640;9.566;2023-07-09T12:56:26;3.47;;;2.40;;
38609;SDS011;24367;51.640;9.566;2023-07-09T12:58:57;4.60;;;2.70;;
38609;SDS011;24367;51.640;9.566;2023-07-09T13:01:23;3.60;;;2.75;;
38609;SDS011;24367;51.640;9.566;2023-07-09T13:03:54;4.18;;;2.92;;
38609;SDS011;24367;51.640;9.566;2023-07-09T13:06:25;8.88;;;3.00;;
38609;SDS011;24367;51.640;9.566;2023-07-09T13:08:55;5.22;;;3.08;;
38609;SDS011;24367;51.640;9.566;2023-07-09T13:11:22;5.00;;;2.90;;
38609;SDS011;24367;51.640;9.566;2023-07-09T13:13:56;5.85;;;3.35;;
38609;SDS011;24367;51.640;9.566;2023-07-09T13:16:24;7.57;;;2.78;;
38609;SDS011;24367;51.640;9.566;2023-07-09T13:18:50;5.65;;;2.95;;
38609;SDS011;24367;51.640;9.566;2023-07-09T13:21:18;6.55;;;2.80;;
38609;SDS011;24367;51.640;9.566;2023-07-09T13:23:45;5.45;;;3.17;;
38609;SDS011;24367;51.640;9.566;2023-07-09T13:26:12;4.30;;;2.80;;
38609;SDS011;24367;51.640;9.566;2023-07-09T13:28:39;12.38;;;3.10;;
38609;SDS011;24367;51.640;9.566;2023-07-09T13:31:10;5.70;;;3.15;;
38609;SDS011;24367;51.640;9.566;2023-07-09T13:36:06;7.93;;;3.58;;
38609;SDS011;24367;51.640;9.566;2023-07-09T13:38:33;4.95;;;2.95;;
38609;SDS011;24367;51.640;9.566;2023-07-09T13:41:00;7.35;;;2.78;;
38609;SDS011;24367;51.640;9.566;2023-07-09T13:43:35;9.32;;;3.15;;
38609;SDS011;24367;51.640;9.566;2023-07-09T13:46:06;6.32;;;2.72;;
38609;SDS011;24367;51.640;9.566;2023-07-09T13:48:35;5.13;;;2.67;;
38609;SDS011;24367;51.640;9.566;2023-07-09T13:51:05;8.60;;;2.92;;
38609;SDS011;24367;51.640;9.566;2023-07-09T13:53:39;11.57;;;3.17;;
38609;SDS011;24367;51.640;9.566;2023-07-09T13:56:06;14.38;;;3.35;;
38609;SDS011;24367;51.640;9.566;2023-07-09T13:58:32;7.68;;;3.25;;
38609;SDS011;24367;51.640;9.566;2023-07-09T14:00:59;10.45;;;3.75;;
38609;SDS011;24367;51.640;9.566;2023-07-09T14:03:32;7.90;;;2.83;;
38609;SDS011;24367;51.640;9.566;2023-07-09T14:06:00;9.02;;;2.92;;
38609;SDS011;24367;51.640;9.566;2023-07-09T14:08:27;7.38;;;3.20;;
38609;SDS011;24367;51.640;9.566;2023-07-09T14:10:54;11.35;;;3.28;;
38609;SDS011;24367;51.640;9.566;2023-07-09T14:13:21;7.38;;;3.28;;
38609;SDS011;24367;51.640;9.566;2023-07-09T14:15:49;7.35;;;3.90;;
38609;SDS011;24367;51.640;9.566;2023-07-09T14:18:17;5.72;;;3.30;;
38609;SDS011;24367;51.640;9.566;2023-07-09T14:20:46;8.18;;;3.28;;
38609;SDS011;24367;51.640;9.566;2023-07-09T14:23:13;8.55;;;2.90;;
38609;SDS011;24367;51.640;9.566;2023-07-09T14:25:41;10.15;;;3.55;;
38609;SDS011;24367;51.640;9.566;2023-07-09T14:28:08;9.27;;;3.05;;
38609;SDS011;24367;51.640;9.566;2023-07-09T14:30:37;7.65;;;3.28;;
38609;SDS011;24367;51.640;9.566;2023-07-09T14:33:04;6.80;;;2.75;;
38609;SDS011;24367;51.640;9.566;2023-07-09T14:35:33;13.50;;;3.95;;
38609;SDS011;24367;51.640;9.566;2023-07-09T14:38:03;9.00;;;3.45;;
38609;SDS011;24367;51.640;9.566;2023-07-09T14:40:41;8.57;;;2.90;;
38609;SDS011;24367;51.640;9.566;2023-07-09T14:43:08;10.93;;;3.50;;
38609;SDS011;24367;51.640;9.566;2023-07-09T14:45:36;9.88;;;3.25;;
38609;SDS011;24367;51.640;9.566;2023-07-09T14:48:04;5.78;;;2.92;;
38609;SDS011;24367;51.640;9.566;2023-07-09T14:50:35;10.40;;;3.05;;
38609;SDS011;24367;51.640;9.566;2023-07-09T14:53:03;8.20;;;2.92;;
38609;SDS011;24367;51.640;9.566;2023-07-09T14:55:29;9.23;;;2.95;;
38609;SDS011;24367;51.640;9.566;2023-07-09T14:57:56;6.93;;;2.88;;
38609;SDS011;24367;51.640;9.566;2023-07-09T15:00:25;4.75;;;2.75;;
38609;SDS011;24367;51.640;9.566;2023-07-09T15:02:52;6.57;;;2.78;;